KTRI/TRI METAR and TAF weather

Enter ICAO airport designator
Station Type Date Time Source
KTRI METAR 2019/04/25 17:53 UTC NOAA

KTRI 251753Z 21008KT 10SM SCT050 SCT110 OVC150 23/13 A2989 RMK AO2 SLP101 T02330133 10233 20139 56018


Station Type Date Time Source
KTRI Decoded METAR 2019/04/25 17:53 UTC NOAA

TRI-CITY REGIONAL AIRPORT, TN, United States (KTRI) 36-28N 082-24W 474M
Apr 25, 2019 - 01:53 PM EDT / 2019.04.25 1753 UTC
Wind: from the SSW (210 degrees) at 9 MPH (8 KT):0
Visibility: 10 mile(s):0
Sky conditions: overcast
Temperature: 73.9 F (23.3 C)
Dew Point: 55.9 F (13.3 C)
Relative Humidity: 53%
Pressure (altimeter): 29.89 in. Hg (1012 hPa)
Pressure tendency: 0.05 inches (1.8 hPa) lower than three hours ago
ob: KTRI 251753Z 21008KT 10SM SCT050 SCT110 OVC150 23/13 A2989 RMK AO2 SLP101 T02330133 10233 20139 56018
cycle: 18

Station Type Date Time Source
KTRI TAF 2019/04/25 18:24 UTC NOAA

TAF KTRI 251722Z 2518/2618 22008KT P6SM SCT040 BKN150
FM252200 23008KT P6SM OVC050
FM260200 21007KT P6SM VCSH OVC040
FM260500 20006KT 5SM -SHRA SCT025 OVC040
FM261400 26010KT 5SM -SHRA BR OVC025
FM261700 30015G27KT 5SM -RA OVC025

Example: see airport list